Time;durP1;ratioP1;P1;durP2;ratioP2;P2;SDS_P1;SDS_P2;PMS_P1;PMS_P2;Temp;Humidity;BMP_temperature;BMP_pressure;BME280_temperature;BME280_humidity;BME280_pressure;Samples;Min_cycle;Max_cycle;Signal;HPM_P1;HPM_P2
2021/01/26 00:00:39;;;;;;;;;;;0.20;99.90;;;;;;4976448;28;19926;-75
2021/01/26 00:03:06;;;;;;;;;;;0.20;99.90;;;;;;4976554;28;19936;-75
2021/01/26 00:05:32;;;;;;;;;;;0.10;99.90;;;;;;4976577;28;19937;-75
2021/01/26 00:07:58;;;;;;;;;;;0.10;99.90;;;;;;4976206;28;19984;-75
2021/01/26 00:10:25;;;;;;;;;;;0.10;99.90;;;;;;4976449;28;19930;-75
2021/01/26 00:12:51;;;;;;;;;;;0.00;99.90;;;;;;4976394;28;19933;-75
2021/01/26 00:15:17;;;;;;;;;;;0.00;99.90;;;;;;4976524;28;19926;-75
2021/01/26 00:17:44;;;;;;;;;;;0.00;99.90;;;;;;4976117;28;19926;-75
2021/01/26 00:20:11;;;;;;;;;;;0.00;99.90;;;;;;4976152;28;19933;-75
2021/01/26 00:22:38;;;;;;;;;;;0.00;99.90;;;;;;4976297;28;19926;-75
2021/01/26 00:25:04;;;;;;;;;;;0.10;99.90;;;;;;4975523;28;20013;-75
2021/01/26 00:27:31;;;;;;;;;;;0.10;99.90;;;;;;4976348;28;19926;-75
2021/01/26 00:29:57;;;;;;;;;;;0.00;99.90;;;;;;4976354;28;20270;-75
2021/01/26 00:32:24;;;;;;;;;;;0.00;99.90;;;;;;4976079;28;19926;-75
2021/01/26 00:34:51;;;;;;;;;;;0.00;99.90;;;;;;4975972;28;19937;-75
2021/01/26 00:37:17;;;;;;;;;;;0.00;99.90;;;;;;4976302;28;20252;-75
2021/01/26 00:39:44;;;;;;;;;;;0.00;99.90;;;;;;4975917;28;19934;-75
2021/01/26 00:42:10;;;;;;;;;;;0.00;99.90;;;;;;4975955;28;19930;-75
2021/01/26 00:44:37;;;;;;;;;;;0.00;99.90;;;;;;4975892;28;19926;-75
2021/01/26 00:47:03;;;;;;;;;;;0.00;99.90;;;;;;4975895;28;19936;-75
2021/01/26 00:49:29;;;;;;;;;;;0.00;99.90;;;;;;4976178;28;19952;-75
2021/01/26 00:51:57;;;;;;;;;;;0.00;99.90;;;;;;4976111;28;19992;-75
2021/01/26 00:54:23;;;;;;;;;;;0.00;99.90;;;;;;4975830;28;20050;-75
2021/01/26 00:56:49;;;;;;;;;;;0.00;99.90;;;;;;4975898;28;19937;-75
2021/01/26 00:59:16;;;;;;;;;;;-0.10;99.90;;;;;;4975882;28;19936;-75
2021/01/26 01:01:42;;;;;;;;;;;-0.10;99.90;;;;;;4976329;28;19926;-75
2021/01/26 01:04:08;;;;;;;;;;;-0.10;99.90;;;;;;4976130;28;19930;-75
2021/01/26 01:06:35;;;;;;;;;;;-0.20;99.90;;;;;;4975931;28;19992;-75
2021/01/26 01:09:02;;;;;;;;;;;-0.20;99.90;;;;;;4976308;28;19930;-75
2021/01/26 01:11:30;;;;;;;;;;;-0.20;99.90;;;;;;4975862;28;19930;-75
2021/01/26 01:13:56;;;;;;;;;;;-0.20;99.90;;;;;;4975878;28;19926;-75
2021/01/26 01:16:22;;;;;;;;;;;-0.20;99.90;;;;;;4975933;28;19936;-75
2021/01/26 01:18:49;;;;;;;;;;;-0.20;99.90;;;;;;4975660;28;20262;-75
2021/01/26 01:21:15;;;;;;;;;;;-0.20;99.90;;;;;;4975885;28;20369;-75
2021/01/26 01:23:41;;;;;;;;;;;-0.20;99.90;;;;;;4975619;28;19933;-75
2021/01/26 01:26:09;;;;;;;;;;;-0.20;99.90;;;;;;4975448;28;19937;-75
2021/01/26 01:28:35;;;;;;;;;;;-0.20;99.90;;;;;;4975959;28;19926;-75
2021/01/26 01:31:01;;;;;;;;;;;-0.20;99.90;;;;;;4975733;28;19937;-75
2021/01/26 01:33:28;;;;;;;;;;;-0.20;99.90;;;;;;4975562;28;19926;-75
2021/01/26 01:35:54;;;;;;;;;;;-0.20;99.90;;;;;;4977515;28;20378;-75
2021/01/26 01:38:20;;;;;;;;;;;-0.20;99.90;;;;;;4978957;28;19941;-75
2021/01/26 01:40:47;;;;;;;;;;;-0.20;99.90;;;;;;4978838;28;19933;-75
2021/01/26 01:43:14;;;;;;;;;;;-0.20;99.90;;;;;;4992197;28;19926;-80
2021/01/26 01:45:40;;;;;;;;;;;-0.20;99.90;;;;;;5002546;28;19965;-80
2021/01/26 01:48:08;;;;;;;;;;;-0.20;99.90;;;;;;5002763;28;19973;-80
2021/01/26 01:50:34;;;;;;;;;;;-0.20;99.90;;;;;;5002515;28;19933;-80
2021/01/26 01:53:02;;;;;;;;;;;-0.20;99.90;;;;;;5002287;28;19910;-80
2021/01/26 01:55:30;;;;;;;;;;;-0.20;99.90;;;;;;5002606;28;19965;-80
2021/01/26 05:02:53;;;;;;;;;;;0.20;99.90;;;;;;5287685;23;19910;-80
2021/01/26 05:07:55;;;;;;;;;;;0.20;99.90;;;;;;5381204;23;19934;-79
2021/01/26 05:10:22;;;;;;;;;;;0.10;99.90;;;;;;5038885;28;19941;-80
2021/01/26 05:12:50;;;;;;;;;;;0.40;99.90;;;;;;5040923;28;19964;-80
2021/01/26 05:15:18;;;;;;;;;;;-0.20;99.90;;;;;;5041040;28;19909;-79
2021/01/26 05:17:46;;;;;;;;;;;-0.30;99.90;;;;;;5040373;28;19995;-79
2021/01/26 05:20:14;;;;;;;;;;;-0.20;99.90;;;;;;5040076;28;19981;-80
2021/01/26 05:22:43;;;;;;;;;;;0.70;99.90;;;;;;5040454;28;20009;-80
2021/01/26 05:25:10;;;;;;;;;;;-1.00;99.90;;;;;;5040823;28;19980;-79
2021/01/26 05:27:37;;;;;;;;;;;-0.10;99.90;;;;;;5040243;28;19910;-79
2021/01/26 05:30:04;;;;;;;;;;;-0.30;99.90;;;;;;5040070;28;19961;-79
2021/01/26 05:32:30;;;;;;;;;;;-0.90;99.90;;;;;;5115341;23;19964;-80
2021/01/26 05:34:57;;;;;;;;;;;0.20;99.90;;;;;;5000767;28;19962;-80
2021/01/26 05:37:24;;;;;;;;;;;-0.70;99.90;;;;;;5051035;23;19969;-79
2021/01/26 05:39:51;;;;;;;;;;;2.30;99.90;;;;;;4999348;28;19957;-80
2021/01/26 05:42:18;;;;;;;;;;;-0.20;99.90;;;;;;5002589;28;19933;-81
2021/01/26 05:44:46;;;;;;;;;;;-0.30;99.90;;;;;;5002142;28;19949;-80
2021/01/26 05:47:20;;;;;;;;;;;0.60;99.90;;;;;;5002344;28;19930;-81
2021/01/26 05:49:47;;;;;;;;;;;-0.80;99.90;;;;;;5002516;28;19966;-81
2021/01/26 05:52:13;;;;;;;;;;;0.60;99.90;;;;;;5002364;28;19981;-81
2021/01/26 05:54:45;;;;;;;;;;;-0.50;99.90;;;;;;5002292;28;19957;-81
2021/01/26 05:57:12;;;;;;;;;;;-0.40;99.90;;;;;;5002244;28;19941;-80
2021/01/26 05:59:38;;;;;;;;;;;-0.70;99.90;;;;;;5005172;28;19969;-81
2021/01/26 06:02:11;;;;;;;;;;;0.80;99.90;;;;;;5002843;28;19910;-81
2021/01/26 06:04:38;;;;;;;;;;;-0.40;99.90;;;;;;5001962;28;19941;-81
2021/01/26 06:07:15;;;;;;;;;;;-0.50;99.90;;;;;;5001824;28;20427;-81
2021/01/26 06:09:45;;;;;;;;;;;1.10;99.90;;;;;;5002273;28;19940;-81
2021/01/26 06:12:13;;;;;;;;;;;-1.10;99.90;;;;;;5002191;28;19961;-80
2021/01/26 06:43:34;;;;;;;;;;;0.40;99.90;;;;;;5139985;23;20001;-78
2021/01/26 06:46:03;;;;;;;;;;;-1.70;99.90;;;;;;5019531;28;19943;-81
2021/01/26 07:22:35;;;;;;;;;;;0.50;99.90;;;;;;5931838;23;20299;-76
2021/01/26 07:25:04;;;;;;;;;;;0.50;99.90;;;;;;4996788;28;19960;-76
2021/01/26 07:27:46;;;;;;;;;;;0.50;99.90;;;;;;4996396;28;19925;-76
2021/01/26 07:30:13;;;;;;;;;;;0.50;99.90;;;;;;4995530;28;19929;-76
2021/01/26 07:32:42;;;;;;;;;;;0.50;99.90;;;;;;4996327;28;20012;-76
2021/01/26 07:35:11;;;;;;;;;;;0.50;99.90;;;;;;4996380;28;20347;-76
2021/01/26 07:37:40;;;;;;;;;;;0.50;99.90;;;;;;4996375;28;19933;-76
2021/01/26 07:40:09;;;;;;;;;;;0.60;99.90;;;;;;4996398;28;19929;-76
2021/01/26 07:42:36;;;;;;;;;;;0.60;99.90;;;;;;4996459;28;19932;-77
2021/01/26 07:45:03;;;;;;;;;;;0.60;99.90;;;;;;4996129;28;19926;-76
2021/01/26 07:47:31;;;;;;;;;;;0.60;99.90;;;;;;4996144;28;19934;-76
2021/01/26 07:49:58;;;;;;;;;;;0.60;99.90;;;;;;4996030;28;19936;-76
2021/01/26 07:52:25;;;;;;;;;;;0.60;99.90;;;;;;4996118;28;20365;-76
2021/01/26 07:54:54;;;;;;;;;;;0.60;99.90;;;;;;4996265;28;19926;-76
2021/01/26 07:57:21;;;;;;;;;;;0.60;99.90;;;;;;4995950;28;19925;-76
2021/01/26 07:59:50;;;;;;;;;;;0.50;99.90;;;;;;4996029;28;19925;-76
2021/01/26 08:02:17;;;;;;;;;;;0.60;99.90;;;;;;4995868;28;19925;-76
2021/01/26 08:04:43;;;;;;;;;;;0.60;99.90;;;;;;4995865;28;19992;-76
2021/01/26 08:07:09;;;;;;;;;;;0.60;99.90;;;;;;4995910;28;20346;-76
2021/01/26 08:09:38;;;;;;;;;;;0.60;99.90;;;;;;4995859;28;19926;-76
2021/01/26 08:12:05;;;;;;;;;;;0.60;99.90;;;;;;4996238;28;19991;-76
2021/01/26 08:14:32;;;;;;;;;;;0.60;99.90;;;;;;4996021;28;19992;-76
2021/01/26 08:16:59;;;;;;;;;;;0.60;99.90;;;;;;4995776;28;19945;-76
2021/01/26 08:19:26;;;;;;;;;;;0.60;99.90;;;;;;4995949;28;20273;-76
2021/01/26 08:21:53;;;;;;;;;;;0.60;99.90;;;;;;4995549;28;19925;-76
2021/01/26 08:24:33;;;;;;;;;;;0.60;99.90;;;;;;4995801;28;19937;-76
2021/01/26 08:27:18;;;;;;;;;;;0.60;99.90;;;;;;4995882;28;19937;-77
2021/01/26 08:29:57;;;;;;;;;;;0.60;99.90;;;;;;4995598;28;20374;-76
2021/01/26 08:32:43;;;;;;;;;;;0.60;99.90;;;;;;4995563;28;19937;-76
2021/01/26 08:35:09;;;;;;;;;;;0.60;99.90;;;;;;4995629;28;19932;-76
2021/01/26 08:37:45;;;;;;;;;;;0.60;99.90;;;;;;4995894;28;19932;-76
2021/01/26 08:40:12;;;;;;;;;;;0.60;99.90;;;;;;4995712;28;19930;-76
2021/01/26 08:42:56;;;;;;;;;;;0.60;99.90;;;;;;4995569;28;19932;-76
2021/01/26 08:45:38;;;;;;;;;;;0.60;99.90;;;;;;4996973;28;19926;-77
2021/01/26 08:48:05;;;;;;;;;;;0.60;99.90;;;;;;4998753;28;20259;-76
2021/01/26 08:50:32;;;;;;;;;;;0.70;99.90;;;;;;4999471;28;19930;-76
2021/01/26 08:53:13;;;;;;;;;;;0.70;99.90;;;;;;4999575;28;20016;-76
2021/01/26 08:55:40;;;;;;;;;;;0.70;99.90;;;;;;4998380;28;20004;-77
2021/01/26 08:58:07;;;;;;;;;;;0.70;99.90;;;;;;4999132;28;19929;-77
2021/01/26 09:00:41;;;;;;;;;;;0.70;99.90;;;;;;4999766;28;19960;-77
2021/01/26 09:03:31;;;;;;;;;;;0.70;99.90;;;;;;4999169;28;20274;-77
2021/01/26 09:05:58;;;;;;;;;;;0.70;99.90;;;;;;4999304;28;20266;-76
2021/01/26 09:08:43;;;;;;;;;;;0.70;99.90;;;;;;4999216;28;19925;-77
2021/01/26 09:11:11;;;;;;;;;;;0.70;99.90;;;;;;4999398;28;19937;-77
2021/01/26 09:13:38;;;;;;;;;;;0.70;99.90;;;;;;4998836;28;19926;-76
2021/01/26 09:16:04;;;;;;;;;;;0.70;99.90;;;;;;4999073;28;19954;-76
2021/01/26 09:18:31;;;;;;;;;;;0.70;99.90;;;;;;4998837;28;19933;-76
2021/01/26 09:20:58;;;;;;;;;;;0.70;99.90;;;;;;4998902;28;19936;-77
2021/01/26 09:23:25;;;;;;;;;;;0.70;99.90;;;;;;4998638;28;19936;-77
2021/01/26 09:25:51;;;;;;;;;;;0.80;99.90;;;;;;4998817;28;19930;-76
2021/01/26 09:28:18;;;;;;;;;;;0.80;99.90;;;;;;4998738;28;20377;-77
2021/01/26 09:30:45;;;;;;;;;;;0.80;99.90;;;;;;4998744;28;19926;-77
2021/01/26 09:33:16;;;;;;;;;;;0.80;99.90;;;;;;4998927;28;19925;-76
2021/01/26 09:35:44;;;;;;;;;;;0.80;99.90;;;;;;4998736;28;20029;-76
2021/01/26 09:38:12;;;;;;;;;;;2.40;99.90;;;;;;4998621;28;19930;-76
2021/01/26 11:07:08;;;;;;;;;;;1.50;99.90;;;;;;5462798;23;19989;-80
2021/01/26 11:09:43;;;;;;;;;;;-1.30;99.90;;;;;;5204116;23;19941;-80
2021/01/26 11:12:14;;;;;;;;;;;1.80;99.90;;;;;;5029157;23;19926;-86
2021/01/26 11:14:41;;;;;;;;;;;1.10;99.90;;;;;;5298133;23;19910;-80
2021/01/26 12:50:19;;;;;;;;;;;2.30;99.90;;;;;;5237366;23;19926;-75
2021/01/26 12:52:45;;;;;;;;;;;2.30;99.90;;;;;;4995488;28;19975;-75
2021/01/26 13:00:23;;;;;;;;;;;2.30;99.90;;;;;;5106806;23;19961;-75
2021/01/26 13:02:50;;;;;;;;;;;2.30;99.90;;;;;;4995504;28;20346;-74
2021/01/26 13:05:16;;;;;;;;;;;2.30;99.90;;;;;;4995597;28;19933;-75
2021/01/26 13:07:43;;;;;;;;;;;2.30;99.90;;;;;;4996314;28;19930;-75
2021/01/26 13:10:11;;;;;;;;;;;2.30;99.90;;;;;;4996588;28;19926;-75
2021/01/26 13:12:37;;;;;;;;;;;2.30;99.90;;;;;;4996216;28;19979;-74
2021/01/26 13:15:04;;;;;;;;;;;2.30;99.90;;;;;;4996468;28;19929;-75
2021/01/26 13:17:30;;;;;;;;;;;2.30;99.90;;;;;;4995504;28;20419;-74
2021/01/26 13:19:56;;;;;;;;;;;2.40;99.90;;;;;;4995260;28;19960;-74
2021/01/26 13:22:23;;;;;;;;;;;2.40;99.90;;;;;;4995573;28;19929;-74
2021/01/26 13:24:50;;;;;;;;;;;2.40;99.90;;;;;;4995664;28;19926;-74
2021/01/26 13:27:16;;;;;;;;;;;2.50;99.90;;;;;;4995220;28;20340;-74
2021/01/26 13:29:43;;;;;;;;;;;2.50;99.90;;;;;;4995181;28;20297;-74
2021/01/26 13:32:09;;;;;;;;;;;2.50;99.90;;;;;;4997687;28;19930;-74
2021/01/26 13:34:36;;;;;;;;;;;2.50;99.90;;;;;;4999180;28;19936;-74
2021/01/26 13:37:02;;;;;;;;;;;2.50;99.90;;;;;;4999069;28;19942;-74
2021/01/26 13:39:28;;;;;;;;;;;2.50;99.90;;;;;;4998897;28;19926;-74
2021/01/26 13:41:58;;;;;;;;;;;2.50;99.90;;;;;;4998763;28;19926;-74
2021/01/26 13:44:25;;;;;;;;;;;2.50;99.90;;;;;;4998538;28;19926;-74
2021/01/26 13:46:51;;;;;;;;;;;2.50;99.90;;;;;;4998678;28;19926;-74
2021/01/26 13:49:17;;;;;;;;;;;2.50;99.90;;;;;;4998655;28;19926;-74
2021/01/26 13:51:44;;;;;;;;;;;2.40;99.90;;;;;;4998522;28;19925;-74
2021/01/26 13:54:10;;;;;;;;;;;2.40;99.90;;;;;;5000606;28;20318;-77
2021/01/26 13:56:37;;;;;;;;;;;2.40;99.90;;;;;;4999274;28;19936;-76
2021/01/26 13:59:04;;;;;;;;;;;2.40;99.90;;;;;;4999904;28;19936;-76
2021/01/26 14:04:06;;;;;;;;;;;2.50;99.90;;;;;;5911672;23;19953;-85
2021/01/26 14:09:08;;;;;;;;;;;2.50;99.90;;;;;;5301900;23;20362;-75
2021/01/26 14:11:45;;;;;;;;;;;2.50;99.90;;;;;;5000057;28;19926;-74
2021/01/26 14:14:14;;;;;;;;;;;4.10;99.90;;;;;;5011725;28;19992;-79
2021/01/26 14:29:38;;;;;;;;;;;2.60;99.90;;;;;;5785921;23;19941;-81
2021/01/26 14:32:06;;;;;;;;;;;2.60;99.90;;;;;;5133033;23;19956;-81
2021/01/26 14:34:33;;;;;;;;;;;2.60;99.90;;;;;;5032473;28;20012;-80
2021/01/26 14:36:59;;;;;;;;;;;2.60;99.90;;;;;;5032540;28;19925;-80
2021/01/26 14:39:27;;;;;;;;;;;2.60;99.90;;;;;;5032545;28;20143;-80
2021/01/26 14:41:53;;;;;;;;;;;2.50;99.90;;;;;;5032312;28;20354;-80
2021/01/26 14:44:19;;;;;;;;;;;2.50;99.90;;;;;;5032580;28;19936;-80
2021/01/26 14:46:47;;;;;;;;;;;2.60;99.90;;;;;;5033860;28;19926;-80
2021/01/26 14:49:13;;;;;;;;;;;2.50;99.90;;;;;;5033473;28;19925;-80
2021/01/26 14:51:40;;;;;;;;;;;2.60;99.90;;;;;;5033685;28;19929;-80
2021/01/26 14:54:07;;;;;;;;;;;2.60;99.90;;;;;;5032567;28;19936;-80
2021/01/26 14:56:33;;;;;;;;;;;2.50;99.90;;;;;;5032023;28;19929;-80
2021/01/26 14:58:59;;;;;;;;;;;2.50;99.90;;;;;;5031657;28;19925;-80
2021/01/26 15:01:25;;;;;;;;;;;2.50;99.90;;;;;;5030602;28;20012;-80
2021/01/26 15:03:53;;;;;;;;;;;2.60;99.90;;;;;;5030937;28;19936;-80
2021/01/26 15:06:19;;;;;;;;;;;2.50;99.90;;;;;;5031494;28;20030;-81
2021/01/26 15:08:46;;;;;;;;;;;2.50;99.90;;;;;;5030907;28;19925;-80
2021/01/26 15:11:12;;;;;;;;;;;2.50;99.90;;;;;;5031292;28;19926;-81
2021/01/26 23:58:48;;;;;;;;;;;3.70;99.90;;;;;;5396187;23;19930;-77
